sensor_id;sensor_type;location;lat;lon;timestamp;pressure;altitude;pressure_sealevel;temperature;humidity
10135;BME280;5107;48.850;8.924;2023-03-15T00:02:00;96379.41;;;0.93;99.92
10135;BME280;5107;48.850;8.924;2023-03-15T00:04:28;96391.31;;;0.96;100.00
10135;BME280;5107;48.850;8.924;2023-03-15T00:06:57;96398.84;;;0.99;99.58
10135;BME280;5107;48.850;8.924;2023-03-15T00:09:24;96405.78;;;0.98;99.41
10135;BME280;5107;48.850;8.924;2023-03-15T00:11:52;96414.97;;;1.13;99.75
10135;BME280;5107;48.850;8.924;2023-03-15T00:14:20;96415.56;;;1.17;99.29
10135;BME280;5107;48.850;8.924;2023-03-15T00:16:48;96418.81;;;1.19;98.58
10135;BME280;5107;48.850;8.924;2023-03-15T00:19:15;96418.50;;;1.12;97.39
10135;BME280;5107;48.850;8.924;2023-03-15T00:21:43;96421.56;;;1.06;97.38
10135;BME280;5107;48.850;8.924;2023-03-15T00:24:10;96427.19;;;1.11;96.99
10135;BME280;5107;48.850;8.924;2023-03-15T00:26:37;96428.84;;;1.12;96.91
10135;BME280;5107;48.850;8.924;2023-03-15T00:29:07;96423.31;;;1.06;96.28
10135;BME280;5107;48.850;8.924;2023-03-15T00:31:34;96434.63;;;1.05;96.31
10135;BME280;5107;48.850;8.924;2023-03-15T00:34:02;96448.72;;;1.01;96.47
10135;BME280;5107;48.850;8.924;2023-03-15T00:36:31;96443.69;;;0.99;96.63
10135;BME280;5107;48.850;8.924;2023-03-15T00:38:58;96448.28;;;0.96;96.63
10135;BME280;5107;48.850;8.924;2023-03-15T00:41:25;96459.25;;;0.99;96.82
10135;BME280;5107;48.850;8.924;2023-03-15T00:43:53;96463.00;;;0.95;97.30
10135;BME280;5107;48.850;8.924;2023-03-15T00:46:20;96466.50;;;0.94;97.94
10135;BME280;5107;48.850;8.924;2023-03-15T00:48:48;96460.63;;;0.92;98.09
10135;BME280;5107;48.850;8.924;2023-03-15T00:51:19;96466.41;;;0.96;98.74
10135;BME280;5107;48.850;8.924;2023-03-15T00:53:48;96464.75;;;0.95;98.39
10135;BME280;5107;48.850;8.924;2023-03-15T00:56:19;96470.03;;;0.93;98.38
10135;BME280;5107;48.850;8.924;2023-03-15T00:58:47;96472.63;;;0.93;98.49
10135;BME280;5107;48.850;8.924;2023-03-15T01:01:16;96482.53;;;0.88;97.99
10135;BME280;5107;48.850;8.924;2023-03-15T01:03:44;96485.47;;;0.84;98.26
10135;BME280;5107;48.850;8.924;2023-03-15T01:06:13;96485.47;;;0.84;98.29
10135;BME280;5107;48.850;8.924;2023-03-15T01:08:43;96486.53;;;0.81;98.27
10135;BME280;5107;48.850;8.924;2023-03-15T01:11:12;96479.81;;;0.79;98.06
10135;BME280;5107;48.850;8.924;2023-03-15T01:13:40;96494.41;;;0.80;98.05
10135;BME280;5107;48.850;8.924;2023-03-15T01:16:11;96496.28;;;0.77;97.98
10135;BME280;5107;48.850;8.924;2023-03-15T01:18:39;96498.50;;;0.71;97.56
10135;BME280;5107;48.850;8.924;2023-03-15T01:21:06;96500.25;;;0.70;97.69
10135;BME280;5107;48.850;8.924;2023-03-15T01:23:34;96502.13;;;0.68;97.72
10135;BME280;5107;48.850;8.924;2023-03-15T01:26:05;96504.88;;;0.67;97.45
10135;BME280;5107;48.850;8.924;2023-03-15T01:28:33;96497.78;;;0.69;97.29
10135;BME280;5107;48.850;8.924;2023-03-15T01:31:00;96509.31;;;0.65;96.95
10135;BME280;5107;48.850;8.924;2023-03-15T01:33:27;96511.91;;;0.65;96.36
10135;BME280;5107;48.850;8.924;2023-03-15T01:35:59;96506.47;;;0.68;96.48
10135;BME280;5107;48.850;8.924;2023-03-15T01:38:27;96510.25;;;0.64;96.51
10135;BME280;5107;48.850;8.924;2023-03-15T01:40:54;96515.44;;;0.64;96.16
10135;BME280;5107;48.850;8.924;2023-03-15T01:43:24;96520.59;;;0.64;95.80
10135;BME280;5107;48.850;8.924;2023-03-15T01:46:04;96513.66;;;0.64;95.15
10135;BME280;5107;48.850;8.924;2023-03-15T01:48:38;96520.50;;;0.65;95.29
10135;BME280;5107;48.850;8.924;2023-03-15T01:51:15;96527.44;;;0.65;94.30
10135;BME280;5107;48.850;8.924;2023-03-15T01:53:48;96535.22;;;0.65;94.37
10135;BME280;5107;48.850;8.924;2023-03-15T01:56:17;96531.78;;;0.64;94.10
10135;BME280;5107;48.850;8.924;2023-03-15T01:58:48;96534.38;;;0.64;93.87
10135;BME280;5107;48.850;8.924;2023-03-15T02:01:18;96534.47;;;0.63;93.94
10135;BME280;5107;48.850;8.924;2023-03-15T02:03:52;96537.44;;;0.58;93.73
10135;BME280;5107;48.850;8.924;2023-03-15T02:06:24;96536.59;;;0.58;93.60
10135;BME280;5107;48.850;8.924;2023-03-15T02:08:58;96534.94;;;0.57;93.25
10135;BME280;5107;48.850;8.924;2023-03-15T02:11:33;96544.38;;;0.58;92.88
10135;BME280;5107;48.850;8.924;2023-03-15T02:14:04;96540.34;;;0.54;92.94
10135;BME280;5107;48.850;8.924;2023-03-15T02:16:38;96537.63;;;0.55;92.82
10135;BME280;5107;48.850;8.924;2023-03-15T02:19:19;96539.28;;;0.56;92.86
10135;BME280;5107;48.850;8.924;2023-03-15T02:21:56;96540.34;;;0.54;92.70
10135;BME280;5107;48.850;8.924;2023-03-15T02:24:32;96544.69;;;0.53;92.59
10135;BME280;5107;48.850;8.924;2023-03-15T02:27:03;96550.09;;;0.50;92.02
10135;BME280;5107;48.850;8.924;2023-03-15T02:29:31;96556.31;;;0.48;92.20
10135;BME280;5107;48.850;8.924;2023-03-15T02:31:59;96560.66;;;0.47;92.39
10135;BME280;5107;48.850;8.924;2023-03-15T02:34:29;96559.84;;;0.47;92.08
10135;BME280;5107;48.850;8.924;2023-03-15T02:36:56;96555.81;;;0.43;92.34
10135;BME280;5107;48.850;8.924;2023-03-15T02:39:26;96557.81;;;0.39;92.58
10135;BME280;5107;48.850;8.924;2023-03-15T02:41:56;96567.34;;;0.38;92.54
10135;BME280;5107;48.850;8.924;2023-03-15T02:44:31;96572.72;;;0.35;92.26
10135;BME280;5107;48.850;8.924;2023-03-15T02:47:02;96576.59;;;0.30;93.06
10135;BME280;5107;48.850;8.924;2023-03-15T02:49:34;96581.03;;;0.28;93.05
10135;BME280;5107;48.850;8.924;2023-03-15T02:52:04;96590.78;;;0.24;93.54
10135;BME280;5107;48.850;8.924;2023-03-15T02:54:32;96599.59;;;0.22;93.52
10135;BME280;5107;48.850;8.924;2023-03-15T02:56:59;96595.25;;;0.22;93.39
10135;BME280;5107;48.850;8.924;2023-03-15T02:59:27;96605.59;;;0.22;93.04
10135;BME280;5107;48.850;8.924;2023-03-15T03:01:56;96609.81;;;0.23;92.69
10135;BME280;5107;48.850;8.924;2023-03-15T03:04:23;96611.47;;;0.24;92.63
10135;BME280;5107;48.850;8.924;2023-03-15T03:06:50;96619.25;;;0.24;92.65
10135;BME280;5107;48.850;8.924;2023-03-15T03:09:22;96618.41;;;0.24;92.62
10135;BME280;5107;48.850;8.924;2023-03-15T03:11:49;96622.66;;;0.25;92.07
10135;BME280;5107;48.850;8.924;2023-03-15T03:14:18;96627.09;;;0.23;92.11
10135;BME280;5107;48.850;8.924;2023-03-15T03:16:48;96639.22;;;0.22;91.67
10135;BME280;5107;48.850;8.924;2023-03-15T03:19:18;96639.69;;;0.27;91.23
10135;BME280;5107;48.850;8.924;2023-03-15T03:21:50;96638.78;;;0.28;91.45
10135;BME280;5107;48.850;8.924;2023-03-15T03:24:19;96649.94;;;0.29;91.23
10135;BME280;5107;48.850;8.924;2023-03-15T03:26:46;96650.16;;;0.26;91.18
10135;BME280;5107;48.850;8.924;2023-03-15T03:29:14;96661.31;;;0.26;90.94
10135;BME280;5107;48.850;8.924;2023-03-15T03:31:43;96664.03;;;0.25;91.38
10135;BME280;5107;48.850;8.924;2023-03-15T03:34:10;96658.03;;;0.24;91.57
10135;BME280;5107;48.850;8.924;2023-03-15T03:36:42;96668.41;;;0.24;91.56
10135;BME280;5107;48.850;8.924;2023-03-15T03:39:11;96665.91;;;0.23;91.62
10135;BME280;5107;48.850;8.924;2023-03-15T03:41:38;96674.81;;;0.19;91.78
10135;BME280;5107;48.850;8.924;2023-03-15T03:44:06;96683.38;;;0.19;91.89
10135;BME280;5107;48.850;8.924;2023-03-15T03:46:34;96682.06;;;0.14;92.22
10135;BME280;5107;48.850;8.924;2023-03-15T03:49:02;96691.59;;;0.13;92.42
10135;BME280;5107;48.850;8.924;2023-03-15T03:51:29;96687.66;;;0.08;92.42
10135;BME280;5107;48.850;8.924;2023-03-15T03:54:00;96685.19;;;0.06;92.66
10135;BME280;5107;48.850;8.924;2023-03-15T03:56:28;96693.78;;;0.07;92.19
10135;BME280;5107;48.850;8.924;2023-03-15T03:58:55;96687.66;;;0.08;91.88
10135;BME280;5107;48.850;8.924;2023-03-15T04:01:29;96692.13;;;0.06;91.85
10135;BME280;5107;48.850;8.924;2023-03-15T04:03:56;96695.63;;;0.05;91.89
10135;BME280;5107;48.850;8.924;2023-03-15T04:06:24;96712.91;;;0.04;92.08
10135;BME280;5107;48.850;8.924;2023-03-15T04:08:51;96709.00;;;-0.02;91.99
10135;BME280;5107;48.850;8.924;2023-03-15T04:11:26;96709.28;;;-0.06;92.30
10135;BME280;5107;48.850;8.924;2023-03-15T04:13:58;96715.38;;;-0.07;92.72
10135;BME280;5107;48.850;8.924;2023-03-15T04:16:26;96713.94;;;-0.11;92.39
10135;BME280;5107;48.850;8.924;2023-03-15T04:19:00;96723.47;;;-0.12;92.43
10135;BME280;5107;48.850;8.924;2023-03-15T04:21:30;96722.13;;;-0.17;92.19
10135;BME280;5107;48.850;8.924;2023-03-15T04:24:07;96723.25;;;-0.21;92.17
10135;BME280;5107;48.850;8.924;2023-03-15T04:26:53;96717.44;;;-0.25;92.94
10135;BME280;5107;48.850;8.924;2023-03-15T04:29:41;96728.84;;;-0.27;93.07
10135;BME280;5107;48.850;8.924;2023-03-15T04:32:21;96731.72;;;-0.32;93.32
10135;BME280;5107;48.850;8.924;2023-03-15T04:35:07;96726.03;;;-0.37;93.40
10135;BME280;5107;48.850;8.924;2023-03-15T04:37:47;96728.00;;;-0.41;92.98
10135;BME280;5107;48.850;8.924;2023-03-15T04:40:33;96736.66;;;-0.42;93.30
10135;BME280;5107;48.850;8.924;2023-03-15T04:43:31;96733.47;;;-0.45;93.37
10135;BME280;5107;48.850;8.924;2023-03-15T04:46:31;96731.91;;;-0.48;92.99
10135;BME280;5107;48.850;8.924;2023-03-15T04:49:17;96732.94;;;-0.50;93.47
10135;BME280;5107;48.850;8.924;2023-03-15T04:52:07;96734.09;;;-0.54;93.24
10135;BME280;5107;48.850;8.924;2023-03-15T04:54:37;96738.44;;;-0.55;93.12
10135;BME280;5107;48.850;8.924;2023-03-15T04:57:30;96735.09;;;-0.57;92.24
10135;BME280;5107;48.850;8.924;2023-03-15T05:00:19;96738.22;;;-0.52;92.02
10135;BME280;5107;48.850;8.924;2023-03-15T05:03:01;96736.34;;;-0.50;91.31
10135;BME280;5107;48.850;8.924;2023-03-15T05:05:51;96731.91;;;-0.48;91.63
10135;BME280;5107;48.850;8.924;2023-03-15T05:08:35;96726.56;;;-0.45;91.22
10135;BME280;5107;48.850;8.924;2023-03-15T05:11:27;96730.81;;;-0.44;91.02
10135;BME280;5107;48.850;8.924;2023-03-15T05:14:12;96733.38;;;-0.44;91.07
10135;BME280;5107;48.850;8.924;2023-03-15T05:17:04;96731.63;;;-0.43;90.49
10135;BME280;5107;48.850;8.924;2023-03-15T05:19:58;96735.25;;;-0.46;91.26
10135;BME280;5107;48.850;8.924;2023-03-15T05:22:55;96726.56;;;-0.45;90.27
10135;BME280;5107;48.850;8.924;2023-03-15T05:25:35;96731.00;;;-0.47;90.87
10135;BME280;5107;48.850;8.924;2023-03-15T05:28:25;96738.00;;;-0.49;90.35
10135;BME280;5107;48.850;8.924;2023-03-15T05:30:55;96735.25;;;-0.46;90.50
10135;BME280;5107;48.850;8.924;2023-03-15T05:33:44;96739.56;;;-0.46;90.22
10135;BME280;5107;48.850;8.924;2023-03-15T05:36:35;96744.84;;;-0.48;89.70
10135;BME280;5107;48.850;8.924;2023-03-15T05:39:18;96745.66;;;-0.47;90.00
10135;BME280;5107;48.850;8.924;2023-03-15T05:42:19;96747.66;;;-0.51;89.91
10135;BME280;5107;48.850;8.924;2023-03-15T05:45:11;96748.75;;;-0.55;90.15
10135;BME280;5107;48.850;8.924;2023-03-15T05:47:52;96753.84;;;-0.53;90.17
10135;BME280;5107;48.850;8.924;2023-03-15T05:50:58;96753.84;;;-0.53;90.05
10135;BME280;5107;48.850;8.924;2023-03-15T05:53:44;96762.31;;;-0.51;90.14
10135;BME280;5107;48.850;8.924;2023-03-15T05:56:24;96755.16;;;-0.48;89.87
10135;BME280;5107;48.850;8.924;2023-03-15T05:58:51;96761.81;;;-0.44;89.63
10135;BME280;5107;48.850;8.924;2023-03-15T06:01:26;96759.13;;;-0.42;89.46
10135;BME280;5107;48.850;8.924;2023-03-15T06:04:09;96773.28;;;-0.35;89.32
10135;BME280;5107;48.850;8.924;2023-03-15T06:06:37;96770.63;;;-0.21;89.03
10135;BME280;5107;48.850;8.924;2023-03-15T06:09:07;96761.22;;;-0.09;88.27
10135;BME280;5107;48.850;8.924;2023-03-15T06:11:35;96770.81;;;0.02;87.42
10135;BME280;5107;48.850;8.924;2023-03-15T06:14:03;96765.94;;;0.10;87.19
10135;BME280;5107;48.850;8.924;2023-03-15T06:16:40;96769.66;;;0.18;86.46
10135;BME280;5107;48.850;8.924;2023-03-15T06:19:07;96773.38;;;0.27;86.09
10135;BME280;5107;48.850;8.924;2023-03-15T06:21:36;96771.00;;;0.36;85.67
10135;BME280;5107;48.850;8.924;2023-03-15T06:24:10;96778.03;;;0.47;84.83
10135;BME280;5107;48.850;8.924;2023-03-15T06:26:37;96778.00;;;0.60;84.68
10135;BME280;5107;48.850;8.924;2023-03-15T06:29:05;96784.09;;;0.71;83.66
10135;BME280;5107;48.850;8.924;2023-03-15T06:31:33;96780.94;;;0.79;83.08
10135;BME280;5107;48.850;8.924;2023-03-15T06:34:06;96785.47;;;0.88;82.83
10135;BME280;5107;48.850;8.924;2023-03-15T06:36:34;96778.81;;;0.97;82.82
10135;BME280;5107;48.850;8.924;2023-03-15T06:39:03;96788.00;;;1.01;81.95
10135;BME280;5107;48.850;8.924;2023-03-15T06:41:31;96776.91;;;1.11;81.71
10135;BME280;5107;48.850;8.924;2023-03-15T06:44:05;96790.84;;;1.22;81.36
10135;BME280;5107;48.850;8.924;2023-03-15T06:46:33;96787.44;;;1.21;80.65
10135;BME280;5107;48.850;8.924;2023-03-15T06:49:00;96786.66;;;1.32;80.83
10135;BME280;5107;48.850;8.924;2023-03-15T06:51:28;96794.91;;;1.37;80.53
10135;BME280;5107;48.850;8.924;2023-03-15T06:53:55;96792.94;;;1.40;80.65
10135;BME280;5107;48.850;8.924;2023-03-15T06:56:24;96788.03;;;1.48;80.22
10135;BME280;5107;48.850;8.924;2023-03-15T06:58:51;96787.78;;;1.51;80.28
10135;BME280;5107;48.850;8.924;2023-03-15T07:01:18;96796.66;;;1.60;80.58
10135;BME280;5107;48.850;8.924;2023-03-15T07:03:46;96794.16;;;1.82;80.37
10135;BME280;5107;48.850;8.924;2023-03-15T07:06:13;96790.94;;;1.79;78.71
10135;BME280;5107;48.850;8.924;2023-03-15T07:08:40;96789.44;;;1.87;78.91
10135;BME280;5107;48.850;8.924;2023-03-15T07:11:07;96802.44;;;1.99;79.14
10135;BME280;5107;48.850;8.924;2023-03-15T07:13:36;96805.50;;;2.04;79.00
10135;BME280;5107;48.850;8.924;2023-03-15T07:16:03;96796.09;;;2.14;78.91
10135;BME280;5107;48.850;8.924;2023-03-15T07:18:31;96791.50;;;2.06;77.23
10135;BME280;5107;48.850;8.924;2023-03-15T07:21:01;96804.47;;;2.06;77.10
10135;BME280;5107;48.850;8.924;2023-03-15T07:23:29;96793.72;;;2.11;76.72
10135;BME280;5107;48.850;8.924;2023-03-15T07:25:56;96807.63;;;2.10;76.77
10135;BME280;5107;48.850;8.924;2023-03-15T07:28:25;96805.91;;;2.21;76.51
10135;BME280;5107;48.850;8.924;2023-03-15T07:30:56;96810.00;;;2.13;76.13
10135;BME280;5107;48.850;8.924;2023-03-15T07:33:25;96810.47;;;2.18;76.26
10135;BME280;5107;48.850;8.924;2023-03-15T07:35:54;96811.69;;;2.25;75.72
10135;BME280;5107;48.850;8.924;2023-03-15T07:38:22;96813.81;;;2.31;75.93
10135;BME280;5107;48.850;8.924;2023-03-15T07:40:50;96811.94;;;2.44;75.68
10135;BME280;5107;48.850;8.924;2023-03-15T07:43:18;96819.97;;;2.63;74.63
10135;BME280;5107;48.850;8.924;2023-03-15T07:45:48;96812.88;;;2.77;74.74
10135;BME280;5107;48.850;8.924;2023-03-15T07:48:17;96811.91;;;2.78;73.68
10135;BME280;5107;48.850;8.924;2023-03-15T07:50:45;96818.06;;;2.88;73.74
10135;BME280;5107;48.850;8.924;2023-03-15T07:53:12;96818.88;;;2.88;72.89
10135;BME280;5107;48.850;8.924;2023-03-15T07:55:39;96812.97;;;2.97;71.26
10135;BME280;5107;48.850;8.924;2023-03-15T07:58:06;96824.97;;;3.21;72.31
10135;BME280;5107;48.850;8.924;2023-03-15T08:00:34;96822.81;;;3.37;71.41
10135;BME280;5107;48.850;8.924;2023-03-15T08:03:01;96820.81;;;3.61;71.56
10135;BME280;5107;48.850;8.924;2023-03-15T08:05:29;96811.41;;;3.81;70.09
10135;BME280;5107;48.850;8.924;2023-03-15T08:07:56;96820.78;;;3.72;69.24
10135;BME280;5107;48.850;8.924;2023-03-15T08:10:23;96833.56;;;3.75;71.09
10135;BME280;5107;48.850;8.924;2023-03-15T08:12:51;96826.19;;;3.60;68.73
10135;BME280;5107;48.850;8.924;2023-03-15T08:15:19;96826.72;;;3.31;68.43
10135;BME280;5107;48.850;8.924;2023-03-15T08:17:47;96824.63;;;3.14;68.52
10135;BME280;5107;48.850;8.924;2023-03-15T08:20:15;96829.13;;;3.23;69.39
10135;BME280;5107;48.850;8.924;2023-03-15T08:22:45;96830.69;;;3.47;69.56
10135;BME280;5107;48.850;8.924;2023-03-15T08:25:16;96832.19;;;3.60;68.54
10135;BME280;5107;48.850;8.924;2023-03-15T08:27:43;96838.19;;;3.72;69.17
10135;BME280;5107;48.850;8.924;2023-03-15T08:30:13;96841.06;;;3.90;69.98
10135;BME280;5107;48.850;8.924;2023-03-15T08:32:42;96835.34;;;3.96;68.15
10135;BME280;5107;48.850;8.924;2023-03-15T08:35:12;96835.00;;;4.00;67.89
10135;BME280;5107;48.850;8.924;2023-03-15T08:37:39;96843.94;;;4.07;67.36
10135;BME280;5107;48.850;8.924;2023-03-15T08:40:10;96841.41;;;3.85;66.67
10135;BME280;5107;48.850;8.924;2023-03-15T08:42:38;96850.13;;;3.74;66.93
10135;BME280;5107;48.850;8.924;2023-03-15T08:45:07;96849.09;;;3.66;67.90
10135;BME280;5107;48.850;8.924;2023-03-15T08:47:34;96843.69;;;3.58;67.51
10135;BME280;5107;48.850;8.924;2023-03-15T08:50:02;96854.19;;;3.56;67.88
10135;BME280;5107;48.850;8.924;2023-03-15T08:52:30;96843.19;;;3.64;67.43
10135;BME280;5107;48.850;8.924;2023-03-15T08:54:58;96856.91;;;3.66;67.96
10135;BME280;5107;48.850;8.924;2023-03-15T08:57:27;96856.69;;;3.58;65.60
10135;BME280;5107;48.850;8.924;2023-03-15T08:59:54;96855.53;;;3.51;66.89
10135;BME280;5107;48.850;8.924;2023-03-15T09:02:22;96861.56;;;3.40;66.76
10135;BME280;5107;48.850;8.924;2023-03-15T09:04:49;96857.44;;;3.37;67.68
10135;BME280;5107;48.850;8.924;2023-03-15T09:07:16;96863.47;;;3.38;68.70
10135;BME280;5107;48.850;8.924;2023-03-15T09:09:44;96868.53;;;3.39;67.76
10135;BME280;5107;48.850;8.924;2023-03-15T09:12:13;96871.13;;;3.51;67.92
10135;BME280;5107;48.850;8.924;2023-03-15T09:14:43;96877.44;;;3.69;67.93
10135;BME280;5107;48.850;8.924;2023-03-15T09:17:10;96873.00;;;3.92;67.10
10135;BME280;5107;48.850;8.924;2023-03-15T09:19:38;96883.53;;;4.43;67.71
10135;BME280;5107;48.850;8.924;2023-03-15T09:22:06;96882.66;;;4.84;66.22
10135;BME280;5107;48.850;8.924;2023-03-15T09:24:33;96885.97;;;5.26;62.56
10135;BME280;5107;48.850;8.924;2023-03-15T09:27:00;96879.97;;;5.54;60.27
10135;BME280;5107;48.850;8.924;2023-03-15T09:29:27;96887.78;;;5.35;60.71
10135;BME280;5107;48.850;8.924;2023-03-15T09:31:56;96891.84;;;5.28;62.07
10135;BME280;5107;48.850;8.924;2023-03-15T09:34:23;96893.66;;;5.37;61.38
10135;BME280;5107;48.850;8.924;2023-03-15T09:36:50;96890.88;;;5.69;61.43
10135;BME280;5107;48.850;8.924;2023-03-15T09:39:19;96880.72;;;5.85;57.57
10135;BME280;5107;48.850;8.924;2023-03-15T09:41:48;96881.44;;;5.97;53.61
10135;BME280;5107;48.850;8.924;2023-03-15T09:44:37;96887.75;;;6.33;55.15
10135;BME280;5107;48.850;8.924;2023-03-15T09:47:27;96880.75;;;6.33;57.36
10135;BME280;5107;48.850;8.924;2023-03-15T09:50:03;96892.28;;;6.60;56.56
10135;BME280;5107;48.850;8.924;2023-03-15T09:52:36;96886.44;;;6.85;52.54
10135;BME280;5107;48.850;8.924;2023-03-15T09:55:14;96890.97;;;7.20;51.82
10135;BME280;5107;48.850;8.924;2023-03-15T09:57:47;96895.59;;;7.36;50.48
10135;BME280;5107;48.850;8.924;2023-03-15T10:00:21;96894.75;;;7.08;49.61
10135;BME280;5107;48.850;8.924;2023-03-15T10:02:56;96895.97;;;6.67;51.87
10135;BME280;5107;48.850;8.924;2023-03-15T10:05:34;96892.03;;;6.34;50.57
10135;BME280;5107;48.850;8.924;2023-03-15T10:08:09;96899.16;;;6.13;50.13
10135;BME280;5107;48.850;8.924;2023-03-15T10:10:49;96895.34;;;6.07;50.24
10135;BME280;5107;48.850;8.924;2023-03-15T10:13:39;96894.22;;;6.38;51.28
10135;BME280;5107;48.850;8.924;2023-03-15T10:16:26;96898.31;;;6.60;49.62
10135;BME280;5107;48.850;8.924;2023-03-15T10:19:12;96887.66;;;6.81;47.41
10135;BME280;5107;48.850;8.924;2023-03-15T10:21:51;96893.38;;;6.47;48.07
10135;BME280;5107;48.850;8.924;2023-03-15T10:24:24;96893.81;;;6.33;48.08
10135;BME280;5107;48.850;8.924;2023-03-15T10:26:58;96887.91;;;6.31;49.72
10135;BME280;5107;48.850;8.924;2023-03-15T10:29:26;96898.09;;;6.25;49.16
10135;BME280;5107;48.850;8.924;2023-03-15T10:31:54;96895.88;;;6.20;48.14
10135;BME280;5107;48.850;8.924;2023-03-15T10:34:23;96887.06;;;6.12;49.44
10135;BME280;5107;48.850;8.924;2023-03-15T10:36:51;96894.25;;;6.09;48.87
10135;BME280;5107;48.850;8.924;2023-03-15T10:39:21;96895.19;;;6.28;49.25
10135;BME280;5107;48.850;8.924;2023-03-15T10:41:50;96899.44;;;6.29;49.31
10135;BME280;5107;48.850;8.924;2023-03-15T10:44:20;96902.22;;;6.18;48.31
10135;BME280;5107;48.850;8.924;2023-03-15T10:47:01;96910.88;;;5.99;48.55
10135;BME280;5107;48.850;8.924;2023-03-15T10:49:35;96912.88;;;5.76;49.45
10135;BME280;5107;48.850;8.924;2023-03-15T10:52:03;96909.81;;;5.71;48.55
10135;BME280;5107;48.850;8.924;2023-03-15T10:54:31;96904.16;;;5.56;49.08
10135;BME280;5107;48.850;8.924;2023-03-15T10:57:02;96908.59;;;5.65;50.19
10135;BME280;5107;48.850;8.924;2023-03-15T10:59:32;96911.78;;;5.69;49.27
10135;BME280;5107;48.850;8.924;2023-03-15T11:02:19;96905.41;;;5.52;49.90
10135;BME280;5107;48.850;8.924;2023-03-15T11:04:59;96900.47;;;5.59;51.00
10135;BME280;5107;48.850;8.924;2023-03-15T11:07:28;96894.28;;;5.60;50.68
10135;BME280;5107;48.850;8.924;2023-03-15T11:10:03;96902.25;;;5.58;51.12
10135;BME280;5107;48.850;8.924;2023-03-15T11:12:33;96902.94;;;5.60;50.75
10135;BME280;5107;48.850;8.924;2023-03-15T11:15:04;96899.50;;;5.50;50.93
10135;BME280;5107;48.850;8.924;2023-03-15T11:17:36;96907.81;;;5.44;51.12
10135;BME280;5107;48.850;8.924;2023-03-15T11:20:27;96906.88;;;5.45;51.07
10135;BME280;5107;48.850;8.924;2023-03-15T11:22:56;96909.78;;;5.42;50.97
10135;BME280;5107;48.850;8.924;2023-03-15T11:25:29;96911.81;;;5.39;52.72
10135;BME280;5107;48.850;8.924;2023-03-15T11:27:58;96909.94;;;5.50;55.16
10135;BME280;5107;48.850;8.924;2023-03-15T11:30:28;96910.03;;;5.39;55.75
10135;BME280;5107;48.850;8.924;2023-03-15T11:33:01;96900.38;;;5.30;55.40
10135;BME280;5107;48.850;8.924;2023-03-15T11:35:38;96915.78;;;5.33;56.67
10135;BME280;5107;48.850;8.924;2023-03-15T11:38:12;96911.91;;;5.27;56.84
10135;BME280;5107;48.850;8.924;2023-03-15T11:40:43;96908.22;;;5.30;56.81
10135;BME280;5107;48.850;8.924;2023-03-15T11:43:18;96912.19;;;5.24;56.75
10135;BME280;5107;48.850;8.924;2023-03-15T11:45:52;96913.84;;;5.25;57.60
10135;BME280;5107;48.850;8.924;2023-03-15T11:48:45;96910.13;;;5.28;56.99
10135;BME280;5107;48.850;8.924;2023-03-15T11:51:15;96918.25;;;5.34;57.00
10135;BME280;5107;48.850;8.924;2023-03-15T11:53:46;96913.59;;;5.38;56.83
10135;BME280;5107;48.850;8.924;2023-03-15T11:56:23;96910.84;;;5.40;57.19
10135;BME280;5107;48.850;8.924;2023-03-15T11:59:05;96904.56;;;5.42;57.62
10135;BME280;5107;48.850;8.924;2023-03-15T12:01:36;96919.91;;;5.45;56.75
10135;BME280;5107;48.850;8.924;2023-03-15T12:04:47;96912.66;;;5.49;55.95
10135;BME280;5107;48.850;8.924;2023-03-15T12:07:37;96918.72;;;5.49;55.93
10135;BME280;5107;48.850;8.924;2023-03-15T12:10:33;96910.63;;;5.52;56.04
10135;BME280;5107;48.850;8.924;2023-03-15T12:13:21;96910.19;;;5.47;56.93
10135;BME280;5107;48.850;8.924;2023-03-15T12:15:49;96911.69;;;5.40;57.02
10135;BME280;5107;48.850;8.924;2023-03-15T12:18:31;96908.94;;;5.42;56.52
10135;BME280;5107;48.850;8.924;2023-03-15T12:24:00;96918.13;;;5.46;58.40
10135;BME280;5107;48.850;8.924;2023-03-15T12:26:42;96920.75;;;5.46;59.19
10135;BME280;5107;48.850;8.924;2023-03-15T12:29:17;96917.94;;;5.28;58.67
10135;BME280;5107;48.850;8.924;2023-03-15T12:32:06;96928.94;;;5.31;61.54
10135;BME280;5107;48.850;8.924;2023-03-15T12:34:43;96935.72;;;5.13;62.63
10135;BME280;5107;48.850;8.924;2023-03-15T12:37:23;96936.22;;;4.97;63.71
10135;BME280;5107;48.850;8.924;2023-03-15T12:40:28;96940.03;;;4.93;65.16
10135;BME280;5107;48.850;8.924;2023-03-15T12:43:06;96940.69;;;4.65;68.67
10135;BME280;5107;48.850;8.924;2023-03-15T12:45:43;96944.38;;;4.42;72.18
10135;BME280;5107;48.850;8.924;2023-03-15T12:48:22;96944.63;;;4.39;73.30
10135;BME280;5107;48.850;8.924;2023-03-15T12:50:59;96941.16;;;4.17;75.97
10135;BME280;5107;48.850;8.924;2023-03-15T12:53:35;96940.44;;;4.27;77.55
10135;BME280;5107;48.850;8.924;2023-03-15T12:56:41;96940.44;;;4.47;79.34
10135;BME280;5107;48.850;8.924;2023-03-15T12:59:27;96935.16;;;4.58;78.17
10135;BME280;5107;48.850;8.924;2023-03-15T13:01:57;96932.50;;;4.49;76.64
10135;BME280;5107;48.850;8.924;2023-03-15T13:04:26;96932.50;;;4.49;76.23
10135;BME280;5107;48.850;8.924;2023-03-15T13:07:17;96947.06;;;4.51;75.57
10135;BME280;5107;48.850;8.924;2023-03-15T13:10:17;96942.97;;;4.38;75.49
10135;BME280;5107;48.850;8.924;2023-03-15T13:12:52;96943.06;;;4.36;76.15
10135;BME280;5107;48.850;8.924;2023-03-15T13:15:24;96940.97;;;4.30;76.43
10135;BME280;5107;48.850;8.924;2023-03-15T13:17:57;96941.91;;;4.08;76.15
10135;BME280;5107;48.850;8.924;2023-03-15T13:20:39;96947.97;;;3.98;77.80
10135;BME280;5107;48.850;8.924;2023-03-15T13:23:15;96946.09;;;4.00;78.43
10135;BME280;5107;48.850;8.924;2023-03-15T13:25:58;96948.59;;;3.90;78.56
10135;BME280;5107;48.850;8.924;2023-03-15T13:28:33;96960.94;;;3.66;80.22
10135;BME280;5107;48.850;8.924;2023-03-15T13:31:11;96956.84;;;3.41;82.38
10135;BME280;5107;48.850;8.924;2023-03-15T13:33:39;96963.81;;;3.29;83.57
10135;BME280;5107;48.850;8.924;2023-03-15T13:36:13;96960.16;;;3.10;85.34
10135;BME280;5107;48.850;8.924;2023-03-15T13:38:43;96961.53;;;2.80;87.02
10135;BME280;5107;48.850;8.924;2023-03-15T13:41:19;96952.66;;;2.72;89.00
10135;BME280;5107;48.850;8.924;2023-03-15T13:43:50;96947.38;;;2.73;91.33
10135;BME280;5107;48.850;8.924;2023-03-15T13:46:20;96941.91;;;2.65;91.39
10135;BME280;5107;48.850;8.924;2023-03-15T13:48:50;96941.81;;;2.66;92.54
10135;BME280;5107;48.850;8.924;2023-03-15T13:51:22;96933.75;;;2.70;92.00
10135;BME280;5107;48.850;8.924;2023-03-15T13:53:52;96930.59;;;2.88;92.30
10135;BME280;5107;48.850;8.924;2023-03-15T13:56:27;96923.50;;;3.01;90.96